« 定点 富山空港 2020/5/21 thu | トップページ | 定点 富山空港他 2020/5/26 tue »

2020/05/23

捜索 滑川市 2020/5/23 sat

本日は、お家でまったり総火演でも見ようかと思っていたら、早朝から何やら姦しい。

RJNT 222200Z VRB02KT 9999 FEW003 SCT008 BKN110 16/14 Q1014

20200523_namerikawa_00ja139t

最初は、山かなって思っていたのですが、どうやら海

20200523_namerikawa_01ja139t

早々に朝飯を掻き込んで、現場探しに

20200523_namerikawa_02pl04

沖合には、PL04「やひこ」さんが

20200523_namerikawa_03tsurugi

漁業監視船「つるぎ」も捜索に参加していたようで、撤収

RJNT 222300Z VRB02KT 9999 FEW005 BKN110 17/14 Q1014

20200523_namerikawa_04ja139t

JA139T AW139 富山県警察「つるぎ」

沿岸をゆっくり舐めるように捜索中

20200523_namerikawa_05ja139t

「つるぎ」さんの前には、海保さんが捜査。富山空港へ朝食に行っています。

20200523_namerikawa_06oyamamaru

富山県東部消防組合の救助艇「雄山丸」

20200523_namerikawa_07ja139t

「つるぎ」さんも一旦撤収

20200523_namerikawa_08pl04

現場に近づくと・・

20200523_namerikawa_09sensui

東部消防の潜水隊が捜索中でした。

20200523_namerikawa_10pl04

「雄山丸」撤収

20200523_namerikawa_11tateyamamaru

滑川漁港には県水産研究所の調査船「立山丸」が係留されています。

20200523_namerikawa_12sensui

潜水隊撤収 どうやら、釣り人が突堤から落ちた模様とのこと

20200523_namerikawa_13ja970a

空港で給油した海保「らいちょう2号」が捜索復帰

20200523_namerikawa_14ja970a

JA970A AW139 JCG

20200523_namerikawa_15genba

現場はこちら キラリン灯台のところ

20200523_namerikawa_16ja970a

一旦沿岸を捜索して、少し沖あいを西へ

20200523_namerikawa_17ja970a

早朝からご苦労様ですね。

RJNT 230000Z VRB01KT 9999 FEW005 SCT100 BKN120 19/15 Q1013

20200523_namerikawa_18ja970a

後の情報として、事案発生は昨日夕方とのこと

20200523_namerikawa_19pl04

船舶での捜索は中断して、空からの捜索のみになったようです。

20200523_namerikawa_20pl04

総火演の時間が迫ってきたので、撤収しました。

この後、「つるぎ」さんが再度捜索に出てましたが、見つかっていないようです。

|

« 定点 富山空港 2020/5/21 thu | トップページ | 定点 富山空港他 2020/5/26 tue »

警務消防」カテゴリの記事

海上保安庁」カテゴリの記事

コメント

コメントを書く



(ウェブ上には掲載しません)


コメントは記事投稿者が公開するまで表示されません。



« 定点 富山空港 2020/5/21 thu | トップページ | 定点 富山空港他 2020/5/26 tue »